sensor_id;sensor_type;location;lat;lon;timestamp;temperature;humidity
14095;DHT22;18096;48.142;16.290;2022-12-07T00:00:40;6.60;99.90
14095;DHT22;18096;48.142;16.290;2022-12-07T00:03:06;6.60;99.90
14095;DHT22;18096;48.142;16.290;2022-12-07T00:05:31;6.60;99.90
14095;DHT22;18096;48.142;16.290;2022-12-07T00:07:57;6.60;99.90
14095;DHT22;18096;48.142;16.290;2022-12-07T00:10:23;6.60;99.90
14095;DHT22;18096;48.142;16.290;2022-12-07T00:12:48;6.60;99.70
14095;DHT22;18096;48.142;16.290;2022-12-07T00:15:15;6.70;99.70
14095;DHT22;18096;48.142;16.290;2022-12-07T00:17:41;6.70;99.50
14095;DHT22;18096;48.142;16.290;2022-12-07T00:20:07;6.60;99.40
14095;DHT22;18096;48.142;16.290;2022-12-07T00:22:32;6.60;99.50
14095;DHT22;18096;48.142;16.290;2022-12-07T00:24:58;6.70;99.50
14095;DHT22;18096;48.142;16.290;2022-12-07T00:27:24;6.70;99.50
14095;DHT22;18096;48.142;16.290;2022-12-07T00:29:49;6.70;99.50
14095;DHT22;18096;48.142;16.290;2022-12-07T00:32:15;6.70;99.60
14095;DHT22;18096;48.142;16.290;2022-12-07T00:34:40;6.70;99.70
14095;DHT22;18096;48.142;16.290;2022-12-07T00:37:06;6.60;99.80
14095;DHT22;18096;48.142;16.290;2022-12-07T00:39:32;6.60;99.80
14095;DHT22;18096;48.142;16.290;2022-12-07T00:41:57;6.60;99.90
14095;DHT22;18096;48.142;16.290;2022-12-07T00:44:23;6.60;99.90
14095;DHT22;18096;48.142;16.290;2022-12-07T00:46:48;6.60;99.90
14095;DHT22;18096;48.142;16.290;2022-12-07T00:49:14;6.60;99.90
14095;DHT22;18096;48.142;16.290;2022-12-07T00:51:40;6.60;99.90
14095;DHT22;18096;48.142;16.290;2022-12-07T00:54:05;6.60;99.90
14095;DHT22;18096;48.142;16.290;2022-12-07T00:56:31;6.60;99.90
14095;DHT22;18096;48.142;16.290;2022-12-07T00:59:01;6.60;99.90
14095;DHT22;18096;48.142;16.290;2022-12-07T01:01:30;6.60;99.90
14095;DHT22;18096;48.142;16.290;2022-12-07T01:03:55;6.60;99.90
14095;DHT22;18096;48.142;16.290;2022-12-07T01:06:22;6.60;99.90
14095;DHT22;18096;48.142;16.290;2022-12-07T01:08:48;6.60;99.90
14095;DHT22;18096;48.142;16.290;2022-12-07T01:11:17;6.60;99.90
14095;DHT22;18096;48.142;16.290;2022-12-07T01:13:44;6.60;99.90
14095;DHT22;18096;48.142;16.290;2022-12-07T01:16:12;6.50;99.90
14095;DHT22;18096;48.142;16.290;2022-12-07T01:18:38;6.50;99.90
14095;DHT22;18096;48.142;16.290;2022-12-07T01:21:13;6.50;99.90
14095;DHT22;18096;48.142;16.290;2022-12-07T01:23:40;6.50;99.90
14095;DHT22;18096;48.142;16.290;2022-12-07T01:26:10;6.50;99.90
14095;DHT22;18096;48.142;16.290;2022-12-07T01:28:36;6.50;99.90
14095;DHT22;18096;48.142;16.290;2022-12-07T01:31:05;6.50;99.90
14095;DHT22;18096;48.142;16.290;2022-12-07T01:33:36;6.50;99.90
14095;DHT22;18096;48.142;16.290;2022-12-07T01:36:14;6.50;99.90
14095;DHT22;18096;48.142;16.290;2022-12-07T01:38:39;6.50;99.90
14095;DHT22;18096;48.142;16.290;2022-12-07T01:41:05;6.50;99.90
14095;DHT22;18096;48.142;16.290;2022-12-07T01:43:32;6.50;99.90
14095;DHT22;18096;48.142;16.290;2022-12-07T01:46:01;6.50;99.90
14095;DHT22;18096;48.142;16.290;2022-12-07T01:48:36;6.40;99.90
14095;DHT22;18096;48.142;16.290;2022-12-07T01:51:06;6.40;99.90
14095;DHT22;18096;48.142;16.290;2022-12-07T01:53:35;6.50;99.90
14095;DHT22;18096;48.142;16.290;2022-12-07T01:56:03;6.50;99.90
14095;DHT22;18096;48.142;16.290;2022-12-07T01:58:29;6.50;99.90
14095;DHT22;18096;48.142;16.290;2022-12-07T02:00:55;6.50;99.90
14095;DHT22;18096;48.142;16.290;2022-12-07T02:03:47;6.50;99.90
14095;DHT22;18096;48.142;16.290;2022-12-07T02:06:17;6.50;99.90
14095;DHT22;18096;48.142;16.290;2022-12-07T02:08:44;6.50;99.90
14095;DHT22;18096;48.142;16.290;2022-12-07T02:11:10;6.40;99.90
14095;DHT22;18096;48.142;16.290;2022-12-07T02:13:39;6.40;99.90
14095;DHT22;18096;48.142;16.290;2022-12-07T02:29:35;6.40;99.90
14095;DHT22;18096;48.142;16.290;2022-12-07T02:32:18;6.40;99.90
14095;DHT22;18096;48.142;16.290;2022-12-07T02:38:03;6.40;99.90
14095;DHT22;18096;48.142;16.290;2022-12-07T02:41:04;6.40;99.90
14095;DHT22;18096;48.142;16.290;2022-12-07T02:43:41;6.40;99.90
14095;DHT22;18096;48.142;16.290;2022-12-07T02:46:12;6.40;99.90
14095;DHT22;18096;48.142;16.290;2022-12-07T02:48:39;6.40;99.90
14095;DHT22;18096;48.142;16.290;2022-12-07T02:51:06;6.40;99.90
14095;DHT22;18096;48.142;16.290;2022-12-07T02:53:43;6.40;99.90
14095;DHT22;18096;48.142;16.290;2022-12-07T03:10:05;6.40;99.90
14095;DHT22;18096;48.142;16.290;2022-12-07T03:15:14;6.40;99.90
14095;DHT22;18096;48.142;16.290;2022-12-07T03:17:43;6.40;99.90
14095;DHT22;18096;48.142;16.290;2022-12-07T03:20:13;6.40;99.90
14095;DHT22;18096;48.142;16.290;2022-12-07T03:22:42;6.40;99.90
14095;DHT22;18096;48.142;16.290;2022-12-07T03:25:11;6.40;99.90
14095;DHT22;18096;48.142;16.290;2022-12-07T03:30:15;6.30;99.90
14095;DHT22;18096;48.142;16.290;2022-12-07T03:32:53;6.30;99.90
14095;DHT22;18096;48.142;16.290;2022-12-07T03:38:06;6.40;99.90
14095;DHT22;18096;48.142;16.290;2022-12-07T03:40:39;6.40;99.90
14095;DHT22;18096;48.142;16.290;2022-12-07T03:43:06;6.40;99.90
14095;DHT22;18096;48.142;16.290;2022-12-07T03:45:46;6.30;99.90
14095;DHT22;18096;48.142;16.290;2022-12-07T03:48:37;6.40;99.90
14095;DHT22;18096;48.142;16.290;2022-12-07T03:53:43;6.30;99.90
14095;DHT22;18096;48.142;16.290;2022-12-07T03:56:10;6.40;99.90
14095;DHT22;18096;48.142;16.290;2022-12-07T03:58:37;6.40;99.90
14095;DHT22;18096;48.142;16.290;2022-12-07T04:01:03;6.40;99.90
14095;DHT22;18096;48.142;16.290;2022-12-07T04:03:29;6.30;99.90
14095;DHT22;18096;48.142;16.290;2022-12-07T04:05:55;6.40;99.90
14095;DHT22;18096;48.142;16.290;2022-12-07T04:08:20;6.30;99.90
14095;DHT22;18096;48.142;16.290;2022-12-07T04:10:46;6.30;99.90
14095;DHT22;18096;48.142;16.290;2022-12-07T04:13:12;6.30;99.90
14095;DHT22;18096;48.142;16.290;2022-12-07T04:15:38;6.30;99.90
14095;DHT22;18096;48.142;16.290;2022-12-07T04:18:03;6.30;99.90
14095;DHT22;18096;48.142;16.290;2022-12-07T04:20:29;6.40;99.90
14095;DHT22;18096;48.142;16.290;2022-12-07T04:22:54;6.40;99.90
14095;DHT22;18096;48.142;16.290;2022-12-07T04:25:20;6.40;99.90
14095;DHT22;18096;48.142;16.290;2022-12-07T04:27:46;6.40;99.90
14095;DHT22;18096;48.142;16.290;2022-12-07T04:30:12;6.40;99.90
14095;DHT22;18096;48.142;16.290;2022-12-07T04:32:37;6.40;99.90
14095;DHT22;18096;48.142;16.290;2022-12-07T04:35:04;6.40;99.90
14095;DHT22;18096;48.142;16.290;2022-12-07T04:37:30;6.40;99.90
14095;DHT22;18096;48.142;16.290;2022-12-07T04:39:55;6.40;99.90
14095;DHT22;18096;48.142;16.290;2022-12-07T04:42:21;6.40;99.90
14095;DHT22;18096;48.142;16.290;2022-12-07T04:44:47;6.40;99.90
14095;DHT22;18096;48.142;16.290;2022-12-07T04:47:12;6.40;99.90
14095;DHT22;18096;48.142;16.290;2022-12-07T04:49:38;6.40;99.90
14095;DHT22;18096;48.142;16.290;2022-12-07T04:52:04;6.40;99.90
14095;DHT22;18096;48.142;16.290;2022-12-07T04:54:29;6.40;99.90
14095;DHT22;18096;48.142;16.290;2022-12-07T04:56:55;6.40;99.90
14095;DHT22;18096;48.142;16.290;2022-12-07T04:59:21;6.40;99.90
14095;DHT22;18096;48.142;16.290;2022-12-07T05:01:46;6.40;99.90
14095;DHT22;18096;48.142;16.290;2022-12-07T05:04:12;6.40;99.90
14095;DHT22;18096;48.142;16.290;2022-12-07T05:06:38;6.40;99.90
14095;DHT22;18096;48.142;16.290;2022-12-07T05:09:04;6.30;99.90
14095;DHT22;18096;48.142;16.290;2022-12-07T05:11:29;6.40;99.90
14095;DHT22;18096;48.142;16.290;2022-12-07T05:14:20;6.40;99.90
14095;DHT22;18096;48.142;16.290;2022-12-07T05:16:48;6.40;99.90
14095;DHT22;18096;48.142;16.290;2022-12-07T05:19:15;6.40;99.90
14095;DHT22;18096;48.142;16.290;2022-12-07T05:21:40;6.40;99.90
14095;DHT22;18096;48.142;16.290;2022-12-07T05:24:08;6.40;99.90
14095;DHT22;18096;48.142;16.290;2022-12-07T05:26:35;6.40;99.90
14095;DHT22;18096;48.142;16.290;2022-12-07T05:29:00;6.40;99.90
14095;DHT22;18096;48.142;16.290;2022-12-07T05:31:26;6.40;99.90
14095;DHT22;18096;48.142;16.290;2022-12-07T05:33:53;6.40;99.90
14095;DHT22;18096;48.142;16.290;2022-12-07T05:36:19;6.40;99.90
14095;DHT22;18096;48.142;16.290;2022-12-07T05:38:45;6.40;99.90
14095;DHT22;18096;48.142;16.290;2022-12-07T05:41:14;6.40;99.90
14095;DHT22;18096;48.142;16.290;2022-12-07T05:43:58;6.40;99.90
14095;DHT22;18096;48.142;16.290;2022-12-07T05:46:24;6.40;99.90
14095;DHT22;18096;48.142;16.290;2022-12-07T05:48:50;6.40;99.90
14095;DHT22;18096;48.142;16.290;2022-12-07T05:51:16;6.40;99.90
14095;DHT22;18096;48.142;16.290;2022-12-07T05:53:41;6.40;99.90
14095;DHT22;18096;48.142;16.290;2022-12-07T05:56:07;6.40;99.90
14095;DHT22;18096;48.142;16.290;2022-12-07T05:58:33;6.40;99.90
14095;DHT22;18096;48.142;16.290;2022-12-07T06:01:17;6.40;99.90
14095;DHT22;18096;48.142;16.290;2022-12-07T06:03:43;6.30;99.90
14095;DHT22;18096;48.142;16.290;2022-12-07T06:06:08;6.30;99.90
14095;DHT22;18096;48.142;16.290;2022-12-07T06:08:34;6.30;99.90
14095;DHT22;18096;48.142;16.290;2022-12-07T06:10:59;6.30;99.90
14095;DHT22;18096;48.142;16.290;2022-12-07T06:13:44;6.30;99.90
14095;DHT22;18096;48.142;16.290;2022-12-07T06:16:09;6.30;99.90
14095;DHT22;18096;48.142;16.290;2022-12-07T06:18:35;6.30;99.90
14095;DHT22;18096;48.142;16.290;2022-12-07T06:21:00;6.30;99.90
14095;DHT22;18096;48.142;16.290;2022-12-07T06:23:26;6.30;99.90
14095;DHT22;18096;48.142;16.290;2022-12-07T06:25:52;6.30;99.90
14095;DHT22;18096;48.142;16.290;2022-12-07T06:28:17;6.40;99.90
14095;DHT22;18096;48.142;16.290;2022-12-07T06:30:43;6.40;99.90
14095;DHT22;18096;48.142;16.290;2022-12-07T06:33:08;6.40;99.90
14095;DHT22;18096;48.142;16.290;2022-12-07T06:35:34;6.40;99.90
14095;DHT22;18096;48.142;16.290;2022-12-07T06:38:00;6.40;99.90
14095;DHT22;18096;48.142;16.290;2022-12-07T06:40:25;6.40;99.90
14095;DHT22;18096;48.142;16.290;2022-12-07T06:42:51;6.40;99.90
14095;DHT22;18096;48.142;16.290;2022-12-07T06:45:17;6.40;99.90
14095;DHT22;18096;48.142;16.290;2022-12-07T06:47:43;6.30;99.90
14095;DHT22;18096;48.142;16.290;2022-12-07T06:50:09;6.30;99.90
14095;DHT22;18096;48.142;16.290;2022-12-07T06:52:34;6.40;99.90
14095;DHT22;18096;48.142;16.290;2022-12-07T06:55:00;6.40;99.90
14095;DHT22;18096;48.142;16.290;2022-12-07T06:57:26;6.40;99.90
14095;DHT22;18096;48.142;16.290;2022-12-07T06:59:52;6.40;99.90
14095;DHT22;18096;48.142;16.290;2022-12-07T07:02:17;6.40;99.90
14095;DHT22;18096;48.142;16.290;2022-12-07T07:04:43;6.40;99.90
14095;DHT22;18096;48.142;16.290;2022-12-07T07:07:09;6.40;99.90
14095;DHT22;18096;48.142;16.290;2022-12-07T07:09:35;6.40;99.90
14095;DHT22;18096;48.142;16.290;2022-12-07T07:12:00;6.40;99.90
14095;DHT22;18096;48.142;16.290;2022-12-07T07:14:26;6.40;99.90
14095;DHT22;18096;48.142;16.290;2022-12-07T07:16:52;6.40;99.90
14095;DHT22;18096;48.142;16.290;2022-12-07T07:19:18;6.40;99.90
14095;DHT22;18096;48.142;16.290;2022-12-07T07:21:43;6.40;99.90
14095;DHT22;18096;48.142;16.290;2022-12-07T07:24:09;6.50;99.90
14095;DHT22;18096;48.142;16.290;2022-12-07T07:26:35;6.50;99.90
14095;DHT22;18096;48.142;16.290;2022-12-07T07:29:00;6.40;99.90
14095;DHT22;18096;48.142;16.290;2022-12-07T07:31:26;6.50;99.90
14095;DHT22;18096;48.142;16.290;2022-12-07T07:33:51;6.40;99.90
14095;DHT22;18096;48.142;16.290;2022-12-07T07:36:17;6.50;99.90
14095;DHT22;18096;48.142;16.290;2022-12-07T07:38:43;6.50;99.90
14095;DHT22;18096;48.142;16.290;2022-12-07T07:41:09;6.50;99.90
14095;DHT22;18096;48.142;16.290;2022-12-07T07:43:34;6.50;99.90
14095;DHT22;18096;48.142;16.290;2022-12-07T07:46:00;6.50;99.90
14095;DHT22;18096;48.142;16.290;2022-12-07T07:48:26;6.60;99.90
14095;DHT22;18096;48.142;16.290;2022-12-07T07:50:51;6.50;99.90
14095;DHT22;18096;48.142;16.290;2022-12-07T07:53:17;6.60;99.90
14095;DHT22;18096;48.142;16.290;2022-12-07T07:55:53;6.60;99.90
14095;DHT22;18096;48.142;16.290;2022-12-07T07:58:19;6.60;99.90
14095;DHT22;18096;48.142;16.290;2022-12-07T08:00:44;6.60;99.90
14095;DHT22;18096;48.142;16.290;2022-12-07T08:03:10;6.60;99.90
14095;DHT22;18096;48.142;16.290;2022-12-07T08:05:37;6.60;99.90
14095;DHT22;18096;48.142;16.290;2022-12-07T08:08:03;6.60;99.90
14095;DHT22;18096;48.142;16.290;2022-12-07T08:10:30;6.60;99.90
14095;DHT22;18096;48.142;16.290;2022-12-07T08:12:58;6.60;99.90
14095;DHT22;18096;48.142;16.290;2022-12-07T08:15:45;6.60;99.90
14095;DHT22;18096;48.142;16.290;2022-12-07T08:18:12;6.60;99.90
14095;DHT22;18096;48.142;16.290;2022-12-07T08:20:38;6.60;99.90
14095;DHT22;18096;48.142;16.290;2022-12-07T08:23:05;6.50;99.90
14095;DHT22;18096;48.142;16.290;2022-12-07T08:25:31;6.60;99.90
14095;DHT22;18096;48.142;16.290;2022-12-07T08:27:57;6.60;99.90
14095;DHT22;18096;48.142;16.290;2022-12-07T08:30:23;6.60;99.90
14095;DHT22;18096;48.142;16.290;2022-12-07T08:32:49;6.70;99.80
14095;DHT22;18096;48.142;16.290;2022-12-07T08:35:15;6.70;99.60
14095;DHT22;18096;48.142;16.290;2022-12-07T08:37:41;6.70;99.50
14095;DHT22;18096;48.142;16.290;2022-12-07T08:40:08;6.70;99.20
14095;DHT22;18096;48.142;16.290;2022-12-07T08:42:34;6.80;98.70
14095;DHT22;18096;48.142;16.290;2022-12-07T08:45:07;6.80;98.30
14095;DHT22;18096;48.142;16.290;2022-12-07T08:47:36;6.80;97.90
14095;DHT22;18096;48.142;16.290;2022-12-07T08:50:04;6.80;96.90
14095;DHT22;18096;48.142;16.290;2022-12-07T08:52:31;6.80;96.90
14095;DHT22;18096;48.142;16.290;2022-12-07T08:54:58;6.80;96.90
14095;DHT22;18096;48.142;16.290;2022-12-07T08:57:26;6.80;96.40
14095;DHT22;18096;48.142;16.290;2022-12-07T08:59:52;6.80;95.70
14095;DHT22;18096;48.142;16.290;2022-12-07T09:02:18;6.90;95.40
14095;DHT22;18096;48.142;16.290;2022-12-07T09:04:43;6.90;95.10
14095;DHT22;18096;48.142;16.290;2022-12-07T09:07:09;6.90;94.80
14095;DHT22;18096;48.142;16.290;2022-12-07T09:09:35;6.90;94.80
14095;DHT22;18096;48.142;16.290;2022-12-07T09:12:00;6.90;94.60
14095;DHT22;18096;48.142;16.290;2022-12-07T09:14:26;6.90;94.40
14095;DHT22;18096;48.142;16.290;2022-12-07T09:16:52;6.80;94.30
14095;DHT22;18096;48.142;16.290;2022-12-07T09:19:17;6.90;94.10
14095;DHT22;18096;48.142;16.290;2022-12-07T09:21:43;6.80;94.00
14095;DHT22;18096;48.142;16.290;2022-12-07T09:24:09;6.80;94.10
14095;DHT22;18096;48.142;16.290;2022-12-07T09:26:35;6.90;94.20
14095;DHT22;18096;48.142;16.290;2022-12-07T09:29:02;6.90;94.00
14095;DHT22;18096;48.142;16.290;2022-12-07T09:31:28;6.80;94.10
14095;DHT22;18096;48.142;16.290;2022-12-07T09:33:58;6.80;94.20
14095;DHT22;18096;48.142;16.290;2022-12-07T09:36:25;6.70;94.20
14095;DHT22;18096;48.142;16.290;2022-12-07T09:38:50;6.70;94.40
14095;DHT22;18096;48.142;16.290;2022-12-07T09:41:16;6.70;94.50
14095;DHT22;18096;48.142;16.290;2022-12-07T09:43:42;6.60;94.60
14095;DHT22;18096;48.142;16.290;2022-12-07T09:46:13;6.70;94.60
14095;DHT22;18096;48.142;16.290;2022-12-07T09:48:40;6.70;94.50
14095;DHT22;18096;48.142;16.290;2022-12-07T09:51:19;6.70;94.40
14095;DHT22;18096;48.142;16.290;2022-12-07T09:53:46;6.70;94.80
14095;DHT22;18096;48.142;16.290;2022-12-07T09:56:13;6.70;94.50
14095;DHT22;18096;48.142;16.290;2022-12-07T09:58:40;6.80;94.30
14095;DHT22;18096;48.142;16.290;2022-12-07T10:03:36;6.70;94.20
14095;DHT22;18096;48.142;16.290;2022-12-07T10:06:04;6.70;93.90
14095;DHT22;18096;48.142;16.290;2022-12-07T10:08:31;6.70;93.90
14095;DHT22;18096;48.142;16.290;2022-12-07T10:10:57;6.70;93.90
14095;DHT22;18096;48.142;16.290;2022-12-07T10:13:42;6.70;92.90
14095;DHT22;18096;48.142;16.290;2022-12-07T10:18:50;6.70;92.50
14095;DHT22;18096;48.142;16.290;2022-12-07T10:21:18;6.70;92.50
14095;DHT22;18096;48.142;16.290;2022-12-07T10:24:03;6.70;92.10
14095;DHT22;18096;48.142;16.290;2022-12-07T10:26:33;6.70;91.80
14095;DHT22;18096;48.142;16.290;2022-12-07T10:31:42;6.70;91.80
14095;DHT22;18096;48.142;16.290;2022-12-07T10:36:47;6.70;91.30
14095;DHT22;18096;48.142;16.290;2022-12-07T10:39:18;6.70;91.20
14095;DHT22;18096;48.142;16.290;2022-12-07T10:41:58;6.70;91.20
14095;DHT22;18096;48.142;16.290;2022-12-07T10:44:27;6.80;91.10
14095;DHT22;18096;48.142;16.290;2022-12-07T10:49:40;6.90;91.20
14095;DHT22;18096;48.142;16.290;2022-12-07T10:55:25;6.90;90.30
14095;DHT22;18096;48.142;16.290;2022-12-07T10:58:18;6.90;90.20
14095;DHT22;18096;48.142;16.290;2022-12-07T11:06:49;7.00;87.90
14095;DHT22;18096;48.142;16.290;2022-12-07T11:12:08;7.00;87.40
14095;DHT22;18096;48.142;16.290;2022-12-07T11:14:41;7.00;87.50
14095;DHT22;18096;48.142;16.290;2022-12-07T11:22:58;7.00;85.50
14095;DHT22;18096;48.142;16.290;2022-12-07T11:25:37;7.00;85.20
14095;DHT22;18096;48.142;16.290;2022-12-07T11:33:53;7.00;86.60
14095;DHT22;18096;48.142;16.290;2022-12-07T11:39:02;7.00;86.30
14095;DHT22;18096;48.142;16.290;2022-12-07T11:41:35;7.00;86.00
14095;DHT22;18096;48.142;16.290;2022-12-07T11:44:22;7.00;86.10
14095;DHT22;18096;48.142;16.290;2022-12-07T11:47:02;6.90;87.10
14095;DHT22;18096;48.142;16.290;2022-12-07T11:54:51;6.80;88.40
14095;DHT22;18096;48.142;16.290;2022-12-07T11:57:28;6.80;88.30
14095;DHT22;18096;48.142;16.290;2022-12-07T12:00:03;6.80;88.40
14095;DHT22;18096;48.142;16.290;2022-12-07T12:02:43;6.80;88.70
14095;DHT22;18096;48.142;16.290;2022-12-07T12:05:25;6.80;89.00
14095;DHT22;18096;48.142;16.290;2022-12-07T12:08:05;6.70;88.80
14095;DHT22;18096;48.142;16.290;2022-12-07T12:21:56;6.80;88.10
14095;DHT22;18096;48.142;16.290;2022-12-07T12:24:26;6.70;88.00
14095;DHT22;18096;48.142;16.290;2022-12-07T12:27:05;6.80;88.10
14095;DHT22;18096;48.142;16.290;2022-12-07T12:29:37;6.80;88.00
14095;DHT22;18096;48.142;16.290;2022-12-07T12:34:59;6.80;87.70
14095;DHT22;18096;48.142;16.290;2022-12-07T12:42:57;6.70;85.50
14095;DHT22;18096;48.142;16.290;2022-12-07T12:45:31;6.70;85.70
14095;DHT22;18096;48.142;16.290;2022-12-07T12:48:09;6.70;85.90
14095;DHT22;18096;48.142;16.290;2022-12-07T12:50:46;6.80;85.30
14095;DHT22;18096;48.142;16.290;2022-12-07T12:53:14;6.80;84.80
14095;DHT22;18096;48.142;16.290;2022-12-07T13:00:48;6.90;84.70
14095;DHT22;18096;48.142;16.290;2022-12-07T13:03:29;6.90;85.00
14095;DHT22;18096;48.142;16.290;2022-12-07T13:06:34;6.90;84.80
14095;DHT22;18096;48.142;16.290;2022-12-07T13:09:01;6.90;85.10
14095;DHT22;18096;48.142;16.290;2022-12-07T13:11:33;6.90;85.30
14095;DHT22;18096;48.142;16.290;2022-12-07T13:17:08;6.90;84.90
14095;DHT22;18096;48.142;16.290;2022-12-07T13:27:34;6.90;85.10
14095;DHT22;18096;48.142;16.290;2022-12-07T13:30:01;6.90;85.30
14095;DHT22;18096;48.142;16.290;2022-12-07T13:32:28;6.90;85.20
14095;DHT22;18096;48.142;16.290;2022-12-07T13:34:55;6.80;85.10
14095;DHT22;18096;48.142;16.290;2022-12-07T13:37:29;6.80;85.10
14095;DHT22;18096;48.142;16.290;2022-12-07T13:40:20;6.80;84.90
14095;DHT22;18096;48.142;16.290;2022-12-07T13:42:46;6.80;84.90
14095;DHT22;18096;48.142;16.290;2022-12-07T13:45:41;6.80;84.80
14095;DHT22;18096;48.142;16.290;2022-12-07T13:48:43;6.70;84.80
14095;DHT22;18096;48.142;16.290;2022-12-07T13:51:21;6.70;85.00
14095;DHT22;18096;48.142;16.290;2022-12-07T13:53:53;6.70;85.10
14095;DHT22;18096;48.142;16.290;2022-12-07T13:56:22;6.70;85.10
14095;DHT22;18096;48.142;16.290;2022-12-07T13:58:52;6.70;85.90
14095;DHT22;18096;48.142;16.290;2022-12-07T14:01:18;6.70;85.80
14095;DHT22;18096;48.142;16.290;2022-12-07T14:03:43;6.70;86.30
14095;DHT22;18096;48.142;16.290;2022-12-07T14:06:16;6.70;86.60
14095;DHT22;18096;48.142;16.290;2022-12-07T14:08:43;6.70;86.60
14095;DHT22;18096;48.142;16.290;2022-12-07T14:11:19;6.70;86.50
14095;DHT22;18096;48.142;16.290;2022-12-07T14:14:01;6.70;86.70
14095;DHT22;18096;48.142;16.290;2022-12-07T14:16:33;6.70;87.00
14095;DHT22;18096;48.142;16.290;2022-12-07T14:19:02;6.70;87.30
14095;DHT22;18096;48.142;16.290;2022-12-07T14:21:30;6.70;87.40
14095;DHT22;18096;48.142;16.290;2022-12-07T14:24:22;6.60;87.70
14095;DHT22;18096;48.142;16.290;2022-12-07T14:26:50;6.60;88.00
14095;DHT22;18096;48.142;16.290;2022-12-07T14:29:21;6.60;88.30
14095;DHT22;18096;48.142;16.290;2022-12-07T14:31:46;6.50;88.70
14095;DHT22;18096;48.142;16.290;2022-12-07T14:34:12;6.50;88.90
14095;DHT22;18096;48.142;16.290;2022-12-07T14:36:38;6.50;90.30
14095;DHT22;18096;48.142;16.290;2022-12-07T14:39:04;6.50;90.10
14095;DHT22;18096;48.142;16.290;2022-12-07T14:41:29;6.50;90.10
14095;DHT22;18096;48.142;16.290;2022-12-07T14:44:13;6.50;90.20
14095;DHT22;18096;48.142;16.290;2022-12-07T14:46:39;6.50;90.20
14095;DHT22;18096;48.142;16.290;2022-12-07T14:49:05;6.50;91.50
14095;DHT22;18096;48.142;16.290;2022-12-07T14:51:31;6.60;92.20
14095;DHT22;18096;48.142;16.290;2022-12-07T14:53:57;6.60;91.20
14095;DHT22;18096;48.142;16.290;2022-12-07T14:56:26;6.60;90.80
14095;DHT22;18096;48.142;16.290;2022-12-07T14:58:53;6.60;90.80
14095;DHT22;18096;48.142;16.290;2022-12-07T15:01:19;6.50;90.80
14095;DHT22;18096;48.142;16.290;2022-12-07T15:03:44;6.50;90.50
14095;DHT22;18096;48.142;16.290;2022-12-07T15:06:15;6.60;90.70
14095;DHT22;18096;48.142;16.290;2022-12-07T15:08:41;6.50;90.70
14095;DHT22;18096;48.142;16.290;2022-12-07T15:11:09;6.50;90.90
14095;DHT22;18096;48.142;16.290;2022-12-07T15:13:35;6.50;90.70
14095;DHT22;18096;48.142;16.290;2022-12-07T15:16:20;6.50;90.80
14095;DHT22;18096;48.142;16.290;2022-12-07T15:18:46;6.50;90.90
14095;DHT22;18096;48.142;16.290;2022-12-07T15:21:15;6.40;91.00
14095;DHT22;18096;48.142;16.290;2022-12-07T15:23:41;6.40;91.30
14095;DHT22;18096;48.142;16.290;2022-12-07T15:26:09;6.30;91.40
14095;DHT22;18096;48.142;16.290;2022-12-07T15:28:35;6.30;91.50
14095;DHT22;18096;48.142;16.290;2022-12-07T15:31:01;6.30;91.70
14095;DHT22;18096;48.142;16.290;2022-12-07T15:33:27;6.30;91.70
14095;DHT22;18096;48.142;16.290;2022-12-07T15:35:52;6.40;91.80
14095;DHT22;18096;48.142;16.290;2022-12-07T15:38:18;6.30;91.90
14095;DHT22;18096;48.142;16.290;2022-12-07T15:40:46;6.30;92.10
14095;DHT22;18096;48.142;16.290;2022-12-07T15:43:12;6.20;92.10
14095;DHT22;18096;48.142;16.290;2022-12-07T15:45:56;6.20;92.30
14095;DHT22;18096;48.142;16.290;2022-12-07T15:48:22;6.10;91.90
14095;DHT22;18096;48.142;16.290;2022-12-07T15:50:48;6.10;91.80
14095;DHT22;18096;48.142;16.290;2022-12-07T15:53:13;6.10;91.80
14095;DHT22;18096;48.142;16.290;2022-12-07T15:55:39;6.10;91.80
14095;DHT22;18096;48.142;16.290;2022-12-07T15:58:06;6.00;91.70
14095;DHT22;18096;48.142;16.290;2022-12-07T16:00:32;6.00;91.60
14095;DHT22;18096;48.142;16.290;2022-12-07T16:02:57;6.00;91.70
14095;DHT22;18096;48.142;16.290;2022-12-07T16:05:23;5.90;91.60
14095;DHT22;18096;48.142;16.290;2022-12-07T16:07:48;5.90;91.60
14095;DHT22;18096;48.142;16.290;2022-12-07T16:10:14;5.80;91.50
14095;DHT22;18096;48.142;16.290;2022-12-07T16:12:40;5.80;91.50
14095;DHT22;18096;48.142;16.290;2022-12-07T16:15:06;5.80;91.50
14095;DHT22;18096;48.142;16.290;2022-12-07T16:17:32;5.80;91.50
14095;DHT22;18096;48.142;16.290;2022-12-07T16:19:58;5.80;91.50
14095;DHT22;18096;48.142;16.290;2022-12-07T16:22:23;5.80;91.50
14095;DHT22;18096;48.142;16.290;2022-12-07T16:24:49;5.70;91.40
14095;DHT22;18096;48.142;16.290;2022-12-07T16:27:15;5.70;91.50
14095;DHT22;18096;48.142;16.290;2022-12-07T16:29:40;5.60;91.50
14095;DHT22;18096;48.142;16.290;2022-12-07T16:32:06;5.60;91.60
14095;DHT22;18096;48.142;16.290;2022-12-07T16:34:32;5.60;91.70
14095;DHT22;18096;48.142;16.290;2022-12-07T16:36:57;5.50;91.80
14095;DHT22;18096;48.142;16.290;2022-12-07T16:39:23;5.50;92.00
14095;DHT22;18096;48.142;16.290;2022-12-07T16:41:49;5.40;92.10
14095;DHT22;18096;48.142;16.290;2022-12-07T16:44:16;5.40;92.20
14095;DHT22;18096;48.142;16.290;2022-12-07T16:46:42;5.40;92.40
14095;DHT22;18096;48.142;16.290;2022-12-07T16:49:17;5.40;92.40
14095;DHT22;18096;48.142;16.290;2022-12-07T16:51:43;5.40;92.30
14095;DHT22;18096;48.142;16.290;2022-12-07T16:54:10;5.40;92.40
14095;DHT22;18096;48.142;16.290;2022-12-07T16:56:37;5.30;92.40
14095;DHT22;18096;48.142;16.290;2022-12-07T16:59:03;5.30;92.60
14095;DHT22;18096;48.142;16.290;2022-12-07T17:01:28;5.20;92.60
14095;DHT22;18096;48.142;16.290;2022-12-07T17:03:56;5.20;92.70
14095;DHT22;18096;48.142;16.290;2022-12-07T17:06:24;5.20;92.80
14095;DHT22;18096;48.142;16.290;2022-12-07T17:08:51;5.20;92.80
14095;DHT22;18096;48.142;16.290;2022-12-07T17:11:26;5.30;92.90
14095;DHT22;18096;48.142;16.290;2022-12-07T17:13:52;5.30;92.90
14095;DHT22;18096;48.142;16.290;2022-12-07T17:16:37;5.30;92.90
14095;DHT22;18096;48.142;16.290;2022-12-07T17:19:07;5.30;93.00
14095;DHT22;18096;48.142;16.290;2022-12-07T17:21:34;5.20;93.10
14095;DHT22;18096;48.142;16.290;2022-12-07T17:24:01;5.30;93.20
14095;DHT22;18096;48.142;16.290;2022-12-07T17:26:29;5.30;93.30
14095;DHT22;18096;48.142;16.290;2022-12-07T17:28:55;5.20;93.30
14095;DHT22;18096;48.142;16.290;2022-12-07T17:31:22;5.30;93.40
14095;DHT22;18096;48.142;16.290;2022-12-07T17:33:48;5.30;93.30
14095;DHT22;18096;48.142;16.290;2022-12-07T17:36:28;5.30;93.30
14095;DHT22;18096;48.142;16.290;2022-12-07T17:38:56;5.30;93.40
14095;DHT22;18096;48.142;16.290;2022-12-07T17:41:24;5.30;93.40